Time;durP1;ratioP1;P1;durP2;ratioP2;P2;SDS_P1;SDS_P2;PMS_P1;PMS_P2;Temp;Humidity;BMP_temperature;BMP_pressure;BME280_temperature;BME280_humidity;BME280_pressure;Samples;Min_cycle;Max_cycle;Signal;HPM_P1;HPM_P2
2021/10/16 00:03:56;;;;;;;1.93;1.03;;;18.70;71.80;;;;;;10415876;28;20197;-67
2021/10/16 00:09:18;;;;;;;3.33;1.43;;;18.80;71.80;;;;;;10415357;28;20225;-67
2021/10/16 00:14:41;;;;;;;1.17;0.90;;;18.70;71.80;;;;;;10414901;28;20202;-68
2021/10/16 00:20:06;;;;;;;2.77;1.33;;;18.70;71.70;;;;;;10414338;28;20225;-68
2021/10/16 00:25:28;;;;;;;2.37;1.07;;;18.70;71.60;;;;;;10415273;28;20209;-68
2021/10/16 00:30:51;;;;;;;1.90;1.10;;;18.70;71.70;;;;;;10414187;28;20228;-68
2021/10/16 00:36:14;;;;;;;1.67;0.87;;;18.70;71.60;;;;;;10414572;28;20209;-68
2021/10/16 00:41:36;;;;;;;1.20;0.73;;;18.70;71.80;;;;;;10413842;28;20574;-68
2021/10/16 00:46:59;;;;;;;2.97;1.20;;;18.70;71.60;;;;;;10413041;28;20198;-68
2021/10/16 00:52:23;;;;;;;2.27;1.10;;;18.70;71.50;;;;;;10412104;28;20231;-68
2021/10/16 00:57:46;;;;;;;3.30;1.00;;;18.70;71.50;;;;;;10414132;28;20205;-68
2021/10/16 01:03:08;;;;;;;2.20;1.10;;;18.70;71.40;;;;;;10411754;28;20209;-68
2021/10/16 01:08:32;;;;;;;2.47;0.80;;;18.70;71.40;;;;;;10411466;28;20218;-68
2021/10/16 01:13:55;;;;;;;2.60;1.10;;;18.70;71.50;;;;;;10425187;28;20319;-68
2021/10/16 01:19:19;;;;;;;1.43;0.87;;;18.70;71.40;;;;;;10440220;28;20220;-68
2021/10/16 01:24:43;;;;;;;1.83;1.00;;;18.70;72.00;;;;;;10412477;28;20206;-68
2021/10/16 01:30:08;;;;;;;2.23;1.00;;;18.70;71.40;;;;;;10411825;28;20232;-68
2021/10/16 01:35:30;;;;;;;1.80;1.20;;;18.70;71.40;;;;;;10417224;23;20691;-65
2021/10/16 01:40:53;;;;;;;1.83;1.03;;;18.70;71.30;;;;;;10396359;28;20587;-65
2021/10/16 01:46:15;;;;;;;1.97;0.97;;;18.70;71.40;;;;;;10399216;28;20541;-65
2021/10/16 01:51:38;;;;;;;2.07;1.00;;;18.70;71.40;;;;;;10371132;28;20233;-65
2021/10/16 01:57:01;;;;;;;2.97;0.90;;;18.70;71.30;;;;;;10388149;28;20208;-65
2021/10/16 02:02:23;;;;;;;2.53;1.10;;;18.70;71.20;;;;;;10384676;28;20221;-65
2021/10/16 02:07:46;;;;;;;2.50;0.93;;;18.70;71.20;;;;;;10400224;28;20198;-65
2021/10/16 02:13:09;;;;;;;2.07;0.80;;;18.70;71.10;;;;;;10375001;28;20702;-66
2021/10/16 02:18:32;;;;;;;2.30;1.00;;;18.60;71.10;;;;;;10384678;28;20694;-64
2021/10/16 02:23:54;;;;;;;1.30;0.70;;;18.70;71.10;;;;;;10409746;28;20198;-65
2021/10/16 02:29:17;;;;;;;1.50;0.70;;;18.70;71.20;;;;;;10396746;28;20249;-65
2021/10/16 02:34:39;;;;;;;3.67;1.33;;;18.70;71.10;;;;;;10374242;28;20213;-65
2021/10/16 02:40:02;;;;;;;1.80;0.90;;;18.70;71.10;;;;;;10378216;28;20213;-65
2021/10/16 02:45:25;;;;;;;2.10;1.00;;;18.70;71.10;;;;;;10369065;28;20667;-65
2021/10/16 02:50:47;;;;;;;1.43;0.63;;;18.60;71.00;;;;;;10369002;28;20211;-65
2021/10/16 02:56:09;;;;;;;3.30;0.80;;;18.60;71.00;;;;;;10368121;28;20194;-65
2021/10/16 03:01:33;;;;;;;2.30;0.70;;;18.70;71.10;;;;;;10367816;28;20220;-65
2021/10/16 03:06:55;;;;;;;2.83;1.30;;;18.60;71.00;;;;;;10369845;28;20692;-65
2021/10/16 03:12:17;;;;;;;2.67;1.03;;;18.60;71.00;;;;;;10408853;28;20245;-66
2021/10/16 03:17:41;;;;;;;1.33;0.77;;;18.60;71.00;;;;;;10405022;28;20209;-65
2021/10/16 03:23:03;;;;;;;1.83;0.90;;;18.60;71.00;;;;;;10402525;28;20575;-65
2021/10/16 03:28:25;;;;;;;1.00;0.70;;;18.60;70.90;;;;;;10407881;28;20224;-66
2021/10/16 03:33:49;;;;;;;3.80;0.87;;;18.60;70.90;;;;;;10407397;28;20209;-65
2021/10/16 03:39:11;;;;;;;2.23;0.90;;;18.60;70.90;;;;;;10405712;28;20221;-65
2021/10/16 03:44:33;;;;;;;2.30;0.87;;;18.60;70.90;;;;;;10408783;28;20194;-65
2021/10/16 03:49:56;;;;;;;1.20;0.60;;;18.60;70.90;;;;;;10407215;28;20253;-65
2021/10/16 03:55:18;;;;;;;2.33;0.80;;;18.60;70.90;;;;;;10408678;28;20216;-65
2021/10/16 04:00:41;;;;;;;1.43;0.80;;;18.60;71.00;;;;;;10408932;28;20210;-65
2021/10/16 04:06:04;;;;;;;2.53;1.00;;;18.60;70.90;;;;;;10407681;28;20213;-65
2021/10/16 04:11:26;;;;;;;1.67;0.87;;;18.60;70.90;;;;;;10387062;28;20218;-65
2021/10/16 04:16:48;;;;;;;2.13;0.80;;;18.60;70.90;;;;;;10369076;28;20317;-64
2021/10/16 04:22:12;;;;;;;2.20;0.70;;;18.60;70.70;;;;;;10370230;28;20684;-65
2021/10/16 04:27:34;;;;;;;1.20;0.67;;;18.60;70.70;;;;;;10375097;28;20191;-65
2021/10/16 04:32:58;;;;;;;1.47;0.83;;;18.60;70.70;;;;;;10373758;28;20595;-65
2021/10/16 04:38:22;;;;;;;1.77;0.80;;;18.60;70.70;;;;;;10390230;28;20230;-66
2021/10/16 04:43:44;;;;;;;0.90;0.60;;;18.60;70.70;;;;;;10373416;28;20205;-65
2021/10/16 04:49:08;;;;;;;2.07;0.87;;;18.60;70.70;;;;;;10385334;28;20222;-65
2021/10/16 04:54:31;;;;;;;1.87;0.90;;;18.60;70.60;;;;;;10372739;28;20218;-65
2021/10/16 04:59:53;;;;;;;1.00;0.67;;;18.70;70.70;;;;;;10377314;28;20210;-65
2021/10/16 05:05:16;;;;;;;1.63;0.83;;;18.70;70.60;;;;;;10413708;28;20342;-65
2021/10/16 05:10:39;;;;;;;1.37;0.70;;;18.70;70.70;;;;;;10413580;28;20232;-65
2021/10/16 05:16:01;;;;;;;4.20;1.10;;;18.70;70.60;;;;;;10413507;28;20194;-66
2021/10/16 05:21:23;;;;;;;3.33;1.07;;;18.70;70.50;;;;;;10383911;28;20688;-66
2021/10/16 05:26:47;;;;;;;2.23;0.80;;;18.80;70.50;;;;;;10373482;28;20663;-65
2021/10/16 05:32:09;;;;;;;1.70;0.90;;;18.80;70.50;;;;;;10377032;28;20218;-65
2021/10/16 05:37:31;;;;;;;1.40;0.73;;;18.80;70.50;;;;;;10371218;28;20210;-65
2021/10/16 05:42:54;;;;;;;1.83;0.87;;;18.80;70.60;;;;;;10370988;28;20187;-65
2021/10/16 05:48:17;;;;;;;1.33;0.90;;;18.80;70.30;;;;;;10369505;28;20249;-65
2021/10/16 05:53:39;;;;;;;1.17;0.63;;;18.80;70.40;;;;;;10411438;28;20213;-65
2021/10/16 05:59:02;;;;;;;1.40;0.57;;;18.80;70.40;;;;;;10410721;28;20229;-65
2021/10/16 06:04:24;;;;;;;2.20;0.90;;;18.80;70.30;;;;;;10402121;28;20202;-65
2021/10/16 06:09:46;;;;;;;1.73;1.00;;;18.80;70.30;;;;;;10371295;28;20225;-65
2021/10/16 06:15:10;;;;;;;1.33;0.80;;;18.80;70.30;;;;;;10370220;28;20201;-66
2021/10/16 06:20:32;;;;;;;2.43;1.00;;;18.80;70.20;;;;;;10369896;28;20696;-65
2021/10/16 06:25:55;;;;;;;2.27;0.70;;;18.80;70.30;;;;;;10390322;28;20446;-65
2021/10/16 06:31:18;;;;;;;1.67;0.70;;;18.80;70.20;;;;;;10410117;28;20583;-65
2021/10/16 06:36:40;;;;;;;1.97;0.70;;;18.80;70.20;;;;;;10407115;28;20217;-65
2021/10/16 06:42:02;;;;;;;1.73;0.90;;;18.80;70.60;;;;;;10389989;28;20214;-65
2021/10/16 06:47:26;;;;;;;3.17;0.97;;;18.80;70.70;;;;;;10380838;28;20196;-65
2021/10/16 06:52:48;;;;;;;1.03;0.53;;;18.80;70.70;;;;;;10410354;28;20217;-65
2021/10/16 06:58:10;;;;;;;0.60;0.47;;;18.80;70.90;;;;;;10408275;28;20248;-65
2021/10/16 07:03:34;;;;;;;1.00;0.70;;;18.80;70.70;;;;;;10403564;28;20194;-64
2021/10/16 07:08:56;;;;;;;2.07;0.83;;;18.80;70.30;;;;;;10409628;28;20214;-65
2021/10/16 07:14:18;;;;;;;1.80;0.83;;;18.80;70.30;;;;;;10383311;28;20583;-65
2021/10/16 07:19:41;;;;;;;2.80;0.73;;;18.80;70.20;;;;;;10368469;28;20215;-65
2021/10/16 07:25:04;;;;;;;1.73;0.80;;;18.80;70.10;;;;;;10368357;28;20198;-65
2021/10/16 07:30:26;;;;;;;1.27;0.70;;;18.80;70.10;;;;;;10383246;28;20217;-63
2021/10/16 07:35:50;;;;;;;2.83;1.20;;;18.80;70.10;;;;;;10419010;23;20702;-67
2021/10/16 07:41:12;;;;;;;3.57;1.20;;;18.80;70.00;;;;;;10482135;28;20193;-68
2021/10/16 07:46:34;;;;;;;2.17;0.70;;;18.80;70.10;;;;;;10471648;28;20227;-67
2021/10/16 07:51:58;;;;;;;1.90;0.80;;;18.80;70.60;;;;;;10439866;28;20217;-68
2021/10/16 07:57:21;;;;;;;1.73;0.87;;;18.90;70.00;;;;;;10413869;28;20220;-67
2021/10/16 08:02:43;;;;;;;1.13;0.57;;;18.90;69.90;;;;;;10418139;28;20200;-68
2021/10/16 08:08:07;;;;;;;2.13;0.80;;;18.90;69.90;;;;;;10447380;28;20229;-67
2021/10/16 08:13:30;;;;;;;2.50;0.80;;;18.80;70.00;;;;;;10444623;28;20218;-69
2021/10/16 08:18:52;;;;;;;2.10;1.03;;;18.90;70.00;;;;;;10436851;28;20221;-67
2021/10/16 08:24:15;;;;;;;1.10;0.73;;;18.90;70.10;;;;;;10421798;28;20385;-68
2021/10/16 08:29:37;;;;;;;2.00;0.70;;;18.90;70.20;;;;;;10436818;28;20197;-68
2021/10/16 08:35:00;;;;;;;0.70;0.60;;;18.90;70.10;;;;;;10439431;28;20724;-68
2021/10/16 08:40:25;;;;;;;4.50;1.17;;;18.80;70.10;;;;;;10426284;28;20206;-67
2021/10/16 08:45:47;;;;;;;2.33;0.80;;;18.90;70.20;;;;;;10456126;28;20213;-69
2021/10/16 08:51:11;;;;;;;1.30;0.70;;;18.80;70.10;;;;;;10415430;28;20233;-69
2021/10/16 08:56:35;;;;;;;1.10;0.67;;;18.90;70.30;;;;;;10424366;28;20291;-68
2021/10/16 09:01:59;;;;;;;1.07;0.67;;;18.80;70.20;;;;;;10433949;28;20657;-68
2021/10/16 09:07:22;;;;;;;1.40;0.73;;;18.80;70.10;;;;;;10422445;28;20562;-69
2021/10/16 09:12:46;;;;;;;1.37;0.83;;;18.80;70.20;;;;;;10446029;28;20229;-68
2021/10/16 09:18:08;;;;;;;1.30;0.80;;;18.80;70.20;;;;;;10450846;28;20212;-68
2021/10/16 09:23:30;;;;;;;1.60;0.90;;;18.80;70.10;;;;;;10428634;28;20197;-68
2021/10/16 09:28:57;;;;;;;0.87;0.70;;;18.80;70.20;;;;;;10435576;28;20293;-68
2021/10/16 09:34:25;;;;;;;1.73;0.70;;;18.90;70.30;;;;;;10423775;28;20713;-67
2021/10/16 09:39:55;;;;;;;3.87;1.03;;;18.90;70.20;;;;;;10452364;28;20276;-67
2021/10/16 09:45:21;;;;;;;2.53;1.03;;;18.90;70.20;;;;;;10442431;28;20217;-68
2021/10/16 09:50:59;;;;;;;2.63;1.50;;;18.80;70.30;;;;;;10450955;28;20193;-68
2021/10/16 09:56:21;;;;;;;3.07;1.83;;;18.90;70.60;;;;;;10411988;28;20689;-68
2021/10/16 10:01:46;;;;;;;4.07;1.53;;;18.80;70.80;;;;;;10445666;28;20200;-68
2021/10/16 10:07:09;;;;;;;3.03;1.40;;;18.80;70.70;;;;;;10449522;28;20691;-68
2021/10/16 10:12:32;;;;;;;3.63;2.00;;;18.80;70.70;;;;;;10443561;28;20224;-68
2021/10/16 10:17:58;;;;;;;3.60;1.73;;;18.80;70.50;;;;;;10445758;28;20710;-67
2021/10/16 10:23:21;;;;;;;3.77;1.80;;;18.80;70.60;;;;;;10451996;28;20280;-68
2021/10/16 10:28:54;;;;;;;2.10;1.53;;;18.80;70.70;;;;;;10450841;28;20747;-67
2021/10/16 10:34:19;;;;;;;2.80;1.60;;;18.80;70.50;;;;;;10452634;28;20227;-68
2021/10/16 10:39:53;;;;;;;3.20;1.60;;;18.80;70.60;;;;;;10450877;28;20574;-68
2021/10/16 10:45:31;;;;;;;2.10;1.20;;;18.80;70.70;;;;;;10446578;28;20209;-68
2021/10/16 10:51:00;;;;;;;2.77;1.67;;;18.80;70.50;;;;;;10421757;28;20324;-68
2021/10/16 10:56:37;;;;;;;3.20;1.00;;;18.80;70.70;;;;;;10431710;28;20213;-68
2021/10/16 11:02:03;;;;;;;2.23;1.07;;;18.80;70.90;;;;;;10424831;28;20300;-68
2021/10/16 11:07:37;;;;;;;2.50;1.03;;;18.80;71.10;;;;;;10421704;28;20603;-68
2021/10/16 11:13:11;;;;;;;2.10;0.97;;;18.80;71.20;;;;;;10451481;28;20209;-67
2021/10/16 11:18:35;;;;;;;3.30;1.40;;;18.70;71.10;;;;;;10449872;28;20213;-68
2021/10/16 11:24:04;;;;;;;2.50;1.33;;;18.70;71.10;;;;;;10441486;28;20189;-68
2021/10/16 11:29:34;;;;;;;1.60;0.90;;;18.70;71.20;;;;;;10443910;28;20205;-67
2021/10/16 11:35:02;;;;;;;2.77;1.17;;;18.70;71.10;;;;;;10441606;28;20224;-68
2021/10/16 11:40:27;;;;;;;2.27;1.13;;;18.80;70.70;;;;;;10455030;28;20196;-68
2021/10/16 11:45:54;;;;;;;4.87;1.20;;;18.80;70.50;;;;;;10457410;28;20201;-68
2021/10/16 11:51:16;;;;;;;1.60;1.00;;;18.80;70.40;;;;;;10431087;28;20208;-67
2021/10/16 11:56:39;;;;;;;1.70;0.90;;;18.80;70.30;;;;;;10458684;28;20217;-68
2021/10/16 12:02:01;;;;;;;3.20;1.17;;;18.80;70.20;;;;;;10441289;28;20189;-69
2021/10/16 12:07:28;;;;;;;3.73;1.03;;;18.80;70.20;;;;;;10454305;28;20211;-67
2021/10/16 12:13:03;;;;;;;2.60;1.00;;;18.80;70.10;;;;;;10448869;28;20236;-67
2021/10/16 12:18:26;;;;;;;2.60;1.37;;;18.80;70.00;;;;;;10418558;28;20789;-68
2021/10/16 12:23:50;;;;;;;2.90;1.10;;;18.80;70.10;;;;;;10452293;28;20682;-69
2021/10/16 12:29:29;;;;;;;3.07;1.10;;;18.80;70.10;;;;;;10446111;28;20213;-67
2021/10/16 12:38:00;;;;;;;2.90;1.13;;;18.90;69.60;;;;;;10493282;28;20401;-56
2021/10/16 12:43:28;;;;;;;3.20;1.00;;;19.00;70.00;;;;;;10437323;28;20189;-66
2021/10/16 12:48:52;;;;;;;2.63;1.20;;;19.20;70.30;;;;;;10439443;28;20221;-67
2021/10/16 12:54:30;;;;;;;2.95;1.27;;;19.20;70.20;;;;;;10439329;28;20808;-67
2021/10/16 12:59:52;;;;;;;6.68;1.67;;;19.70;67.50;;;;;;10439607;28;20432;-66
2021/10/16 13:05:16;;;;;;;2.50;1.00;;;19.50;67.90;;;;;;10440380;28;20221;-65
2021/10/16 13:10:40;;;;;;;3.23;1.10;;;19.20;68.30;;;;;;10434461;28;20672;-66
2021/10/16 13:16:03;;;;;;;2.90;1.03;;;19.10;68.70;;;;;;10435874;28;20705;-66
2021/10/16 13:21:25;;;;;;;2.03;1.03;;;18.90;69.10;;;;;;10438530;28;20212;-66
2021/10/16 13:26:48;;;;;;;2.67;1.10;;;18.90;69.20;;;;;;10438375;28;20220;-65
2021/10/16 13:32:12;;;;;;;2.80;1.20;;;18.90;69.30;;;;;;10438854;28;20676;-66
2021/10/16 13:37:34;;;;;;;2.43;1.03;;;18.90;69.40;;;;;;10477321;28;20251;-66
2021/10/16 13:42:58;;;;;;;1.83;1.00;;;18.90;69.30;;;;;;10456634;28;20575;-65
2021/10/16 13:48:20;;;;;;;4.37;1.43;;;18.80;69.20;;;;;;10446198;28;20649;-65
2021/10/16 13:53:42;;;;;;;2.10;1.13;;;18.80;69.20;;;;;;10450576;28;20300;-65
2021/10/16 13:59:06;;;;;;;2.70;1.00;;;18.90;69.30;;;;;;10450475;28;20220;-64
2021/10/16 14:04:29;;;;;;;1.83;1.00;;;18.90;69.80;;;;;;10449824;28;20715;-64
2021/10/16 14:09:51;;;;;;;2.97;1.20;;;18.80;69.10;;;;;;10450114;28;20189;-65
2021/10/16 14:15:14;;;;;;;2.70;1.10;;;18.90;69.30;;;;;;10484607;22;20227;-67
2021/10/16 14:20:36;;;;;;;1.30;0.90;;;18.90;69.20;;;;;;10523160;28;20194;-64
2021/10/16 14:25:58;;;;;;;3.57;1.20;;;18.90;69.20;;;;;;10542676;28;20216;-64
2021/10/16 14:31:22;;;;;;;3.80;1.43;;;18.80;69.10;;;;;;10538337;28;20192;-64
2021/10/16 14:36:44;;;;;;;2.37;1.37;;;18.80;69.10;;;;;;10535742;28;20223;-64
2021/10/16 14:42:06;;;;;;;4.20;1.40;;;18.80;69.10;;;;;;10536902;28;20693;-63
2021/10/16 14:47:30;;;;;;;5.97;1.40;;;18.80;69.10;;;;;;10537169;28;20215;-63
2021/10/16 14:52:52;;;;;;;2.57;1.60;;;18.90;69.10;;;;;;10538593;28;20206;-65
2021/10/16 14:58:14;;;;;;;4.30;1.90;;;18.80;69.10;;;;;;10535893;28;20234;-64
2021/10/16 15:03:38;;;;;;;4.50;1.53;;;18.80;69.30;;;;;;10535897;28;20196;-64
2021/10/16 15:09:00;;;;;;;3.13;1.60;;;18.90;69.40;;;;;;10530138;28;20207;-62
2021/10/16 15:14:22;;;;;;;2.40;1.27;;;18.90;69.40;;;;;;10535634;28;20211;-64
2021/10/16 15:19:45;;;;;;;2.03;1.20;;;18.80;69.50;;;;;;10535905;28;20648;-64
2021/10/16 15:25:08;;;;;;;3.70;1.23;;;18.80;69.20;;;;;;10535959;28;20220;-64
2021/10/16 15:30:30;;;;;;;5.07;1.47;;;18.70;68.20;;;;;;10536276;28;20195;-64
2021/10/16 15:35:54;;;;;;;4.17;1.50;;;18.80;67.70;;;;;;10534321;28;20212;-63
2021/10/16 15:41:18;;;;;;;2.53;1.40;;;18.80;67.50;;;;;;10535016;28;20199;-64
2021/10/16 15:46:40;;;;;;;2.57;1.47;;;18.80;67.80;;;;;;10534399;28;20212;-63
2021/10/16 15:52:04;;;;;;;5.03;2.10;;;18.80;68.00;;;;;;10529162;28;20200;-63
2021/10/16 15:57:26;;;;;;;3.03;1.33;;;18.90;68.20;;;;;;10535100;28;20223;-64
2021/10/16 16:02:48;;;;;;;2.07;1.20;;;18.80;68.10;;;;;;10533709;28;20203;-64
2021/10/16 16:08:11;;;;;;;3.73;1.30;;;18.80;68.30;;;;;;10533499;28;20223;-64
2021/10/16 16:13:34;;;;;;;3.10;1.30;;;18.80;68.30;;;;;;10533014;28;20188;-64
2021/10/16 16:18:56;;;;;;;3.37;1.57;;;18.90;68.40;;;;;;10534757;28;20701;-64
2021/10/16 16:24:19;;;;;;;1.80;0.93;;;18.80;68.70;;;;;;10529922;28;20227;-65
2021/10/16 16:29:42;;;;;;;2.00;1.00;;;18.80;68.90;;;;;;10529094;28;20203;-66
2021/10/16 16:35:05;;;;;;;2.43;1.30;;;18.90;69.10;;;;;;10525945;28;20226;-65
2021/10/16 16:40:28;;;;;;;1.77;1.43;;;18.90;69.20;;;;;;10518979;28;20199;-66
2021/10/16 16:45:50;;;;;;;2.13;1.30;;;18.90;69.40;;;;;;10530563;28;20214;-65
2021/10/16 16:51:12;;;;;;;4.23;1.70;;;18.90;69.40;;;;;;10533884;28;20556;-65
2021/10/16 16:56:36;;;;;;;4.53;1.50;;;18.90;69.30;;;;;;10532369;28;20220;-65
2021/10/16 17:01:58;;;;;;;2.23;1.23;;;18.90;69.40;;;;;;10528781;28;20196;-65
2021/10/16 17:07:20;;;;;;;1.97;1.30;;;18.90;69.40;;;;;;10533711;28;20212;-66
2021/10/16 17:12:44;;;;;;;2.73;1.50;;;18.90;69.40;;;;;;10533253;28;20196;-66
2021/10/16 17:18:07;;;;;;;3.23;1.37;;;18.90;69.40;;;;;;10533763;28;20223;-65
2021/10/16 17:23:29;;;;;;;2.37;1.60;;;18.90;69.40;;;;;;10538601;28;20187;-65
2021/10/16 17:28:53;;;;;;;3.33;1.60;;;18.90;69.40;;;;;;10540668;28;20192;-65
2021/10/16 17:34:16;;;;;;;2.23;1.37;;;18.90;69.40;;;;;;10541025;28;20230;-64
2021/10/16 17:39:38;;;;;;;3.27;1.30;;;18.90;69.90;;;;;;10540010;28;20195;-65
2021/10/16 17:45:02;;;;;;;1.60;1.20;;;18.90;70.00;;;;;;10511522;28;20216;-66
2021/10/16 17:50:24;;;;;;;2.40;1.50;;;18.90;69.30;;;;;;10540772;28;20203;-66
2021/10/16 17:55:47;;;;;;;3.00;1.30;;;18.90;69.30;;;;;;10539417;28;20227;-65
2021/10/16 18:01:11;;;;;;;2.23;1.30;;;18.90;69.30;;;;;;10538230;28;20200;-66
2021/10/16 18:06:34;;;;;;;2.47;1.57;;;18.90;69.40;;;;;;10536371;28;20915;-66
2021/10/16 18:11:56;;;;;;;2.97;1.50;;;18.90;69.20;;;;;;10531990;28;20203;-66
2021/10/16 18:17:19;;;;;;;2.27;1.40;;;18.90;69.20;;;;;;10532399;28;20211;-66
2021/10/16 18:22:42;;;;;;;1.90;1.20;;;18.90;69.20;;;;;;10532118;28;20223;-65
2021/10/16 18:28:04;;;;;;;2.33;1.40;;;18.90;69.20;;;;;;10531675;28;20721;-65
2021/10/16 18:33:28;;;;;;;2.87;1.40;;;18.90;69.20;;;;;;10529740;28;20226;-65
2021/10/16 18:38:50;;;;;;;2.43;1.30;;;18.90;69.10;;;;;;10529302;28;20211;-65
2021/10/16 18:44:12;;;;;;;2.50;1.30;;;18.90;69.10;;;;;;10529664;28;20223;-65
2021/10/16 18:49:35;;;;;;;1.40;0.93;;;18.90;69.00;;;;;;10529462;28;20199;-66
2021/10/16 18:54:57;;;;;;;2.23;1.30;;;18.90;69.00;;;;;;10529284;28;20211;-66
2021/10/16 19:00:20;;;;;;;1.90;1.10;;;18.90;69.10;;;;;;10529288;28;20278;-66
2021/10/16 19:05:43;;;;;;;2.47;1.27;;;18.90;69.00;;;;;;10529489;28;20207;-66
2021/10/16 19:11:05;;;;;;;2.00;1.00;;;18.90;69.00;;;;;;10529658;28;20223;-66
2021/10/16 19:16:28;;;;;;;2.23;1.10;;;18.90;69.10;;;;;;10529865;28;20215;-65
2021/10/16 19:21:51;;;;;;;3.67;1.20;;;18.90;69.00;;;;;;10527615;28;20663;-66
2021/10/16 19:27:13;;;;;;;3.50;1.10;;;18.90;69.00;;;;;;10527964;28;20207;-66
2021/10/16 19:32:36;;;;;;;2.03;1.20;;;18.90;69.00;;;;;;10529656;28;20218;-66
2021/10/16 19:37:59;;;;;;;2.03;1.00;;;18.90;69.00;;;;;;10533859;28;20733;-66
2021/10/16 19:43:21;;;;;;;1.87;1.00;;;18.90;68.90;;;;;;10534241;28;20199;-66
2021/10/16 19:48:44;;;;;;;4.97;1.47;;;18.90;68.80;;;;;;10531032;28;20669;-66
2021/10/16 19:54:08;;;;;;;1.87;1.00;;;18.90;68.80;;;;;;10534003;28;20207;-66
2021/10/16 19:59:30;;;;;;;2.13;1.30;;;18.90;68.80;;;;;;10531820;28;20195;-66
2021/10/16 20:04:52;;;;;;;2.73;1.00;;;18.90;68.80;;;;;;10534822;28;20694;-66
2021/10/16 20:10:16;;;;;;;2.13;1.10;;;18.90;68.80;;;;;;10530509;28;20718;-66
2021/10/16 20:15:38;;;;;;;2.23;1.10;;;18.90;68.80;;;;;;10526822;28;20231;-66
2021/10/16 20:21:00;;;;;;;1.90;1.00;;;18.90;68.70;;;;;;10532659;28;20317;-64
2021/10/16 20:26:23;;;;;;;1.97;1.03;;;18.90;68.80;;;;;;10530437;28;20219;-66
2021/10/16 20:31:45;;;;;;;2.23;1.20;;;18.90;68.70;;;;;;10532996;28;20213;-66
2021/10/16 20:37:08;;;;;;;1.90;1.03;;;18.90;68.70;;;;;;10533248;28;20219;-66
2021/10/16 20:42:31;;;;;;;2.73;1.17;;;18.90;68.70;;;;;;10534014;28;20196;-66
2021/10/16 20:47:53;;;;;;;2.60;1.13;;;18.90;68.70;;;;;;10533673;28;20220;-65
2021/10/16 20:58:25;;;;;;;1.73;1.10;;;18.80;68.50;;;;;;10462511;28;20228;-66
2021/10/16 21:03:47;;;;;;;2.10;0.87;;;18.80;68.50;;;;;;10433049;28;20197;-66
2021/10/16 21:09:09;;;;;;;2.97;1.43;;;18.80;68.50;;;;;;10436315;28;20570;-66
2021/10/16 21:14:33;;;;;;;1.67;1.23;;;18.80;68.50;;;;;;10429357;28;20202;-67
2021/10/16 21:19:55;;;;;;;1.80;0.93;;;18.80;68.50;;;;;;10431320;28;20210;-66
2021/10/16 21:25:17;;;;;;;2.20;1.10;;;18.70;68.50;;;;;;10424734;28;20563;-66
2021/10/16 21:30:41;;;;;;;1.70;1.07;;;18.70;68.60;;;;;;10374778;28;20214;-67
2021/10/16 21:36:03;;;;;;;2.67;1.10;;;18.70;68.70;;;;;;10409926;28;20710;-66
2021/10/16 21:41:25;;;;;;;2.87;1.20;;;18.70;68.70;;;;;;10414695;28;20225;-66
2021/10/16 21:46:49;;;;;;;1.67;1.07;;;18.70;68.70;;;;;;10419481;28;20190;-67
2021/10/16 21:52:11;;;;;;;2.03;1.03;;;18.70;68.60;;;;;;10413183;28;20228;-67
2021/10/16 21:57:34;;;;;;;2.47;1.10;;;18.70;68.50;;;;;;10431571;28;20221;-66
2021/10/16 22:02:57;;;;;;;1.40;0.80;;;18.70;68.40;;;;;;10453765;28;20201;-66
2021/10/16 22:08:20;;;;;;;1.90;0.93;;;18.70;68.50;;;;;;10440813;28;20216;-66
2021/10/16 22:13:42;;;;;;;1.50;1.00;;;18.70;68.50;;;;;;10417044;28;20575;-66
2021/10/16 22:19:06;;;;;;;1.53;1.00;;;18.60;68.50;;;;;;10413782;28;20707;-67
2021/10/16 22:24:28;;;;;;;1.83;1.30;;;18.60;68.50;;;;;;10452524;28;20193;-66
2021/10/16 22:29:50;;;;;;;2.10;1.23;;;18.70;68.50;;;;;;10408630;28;20232;-66
2021/10/16 22:35:13;;;;;;;1.50;0.90;;;18.70;68.50;;;;;;10413702;28;20209;-67
2021/10/16 22:40:35;;;;;;;2.50;1.20;;;18.70;69.00;;;;;;10453774;28;20717;-67
2021/10/16 22:45:58;;;;;;;2.50;0.97;;;18.70;68.40;;;;;;10452416;28;20197;-66
2021/10/16 22:51:21;;;;;;;3.20;1.20;;;18.70;68.40;;;;;;10431623;28;20316;-66
2021/10/16 22:56:44;;;;;;;1.50;1.03;;;18.60;68.30;;;;;;10453496;28;20217;-66
2021/10/16 23:02:06;;;;;;;1.60;0.83;;;18.60;68.40;;;;;;10439305;28;20312;-66
2021/10/16 23:07:29;;;;;;;2.13;0.90;;;18.60;68.40;;;;;;10442956;28;20240;-66
2021/10/16 23:12:52;;;;;;;3.27;1.30;;;18.70;68.40;;;;;;10423788;28;20201;-67
2021/10/16 23:18:16;;;;;;;1.80;1.10;;;18.60;68.30;;;;;;10409933;28;20228;-67
2021/10/16 23:23:39;;;;;;;2.37;1.10;;;18.70;68.30;;;;;;10443438;28;20193;-66
2021/10/16 23:29:02;;;;;;;1.70;0.97;;;18.70;68.40;;;;;;10415809;28;20218;-66
2021/10/16 23:34:24;;;;;;;2.53;1.00;;;18.60;68.30;;;;;;10448638;28;20216;-67
2021/10/16 23:39:48;;;;;;;1.63;1.00;;;18.60;68.30;;;;;;10446019;28;20217;-66
2021/10/16 23:45:11;;;;;;;1.77;1.10;;;18.60;68.40;;;;;;10409516;28;20671;-67
2021/10/16 23:50:36;;;;;;;2.53;1.10;;;18.60;68.30;;;;;;10420459;28;20220;-67
2021/10/16 23:55:59;;;;;;;2.13;0.97;;;18.60;68.30;;;;;;10470385;28;20216;-66
